createdAt,value
2022-12-29T00:00:02.663Z,9.61
2022-12-29T00:00:35.663Z,9.61
2022-12-29T00:01:06.423Z,9.50
2022-12-29T00:01:39.322Z,9.50
2022-12-29T00:02:10.476Z,9.50
2022-12-29T00:02:43.491Z,9.61
2022-12-29T00:03:14.597Z,9.61
2022-12-29T00:03:47.255Z,9.61
2022-12-29T00:04:18.391Z,9.61
2022-12-29T00:04:51.284Z,9.61
2022-12-29T00:05:22.210Z,9.61
2022-12-29T00:05:56.215Z,9.61
2022-12-29T00:06:26.246Z,9.61
2022-12-29T00:06:59.285Z,9.61
2022-12-29T00:07:30.045Z,9.61
2022-12-29T00:08:03.216Z,9.61
2022-12-29T00:08:34.475Z,9.61
2022-12-29T00:09:07.217Z,9.61
2022-12-29T00:09:37.992Z,9.61
2022-12-29T00:10:10.995Z,9.61
2022-12-29T00:10:42.070Z,9.61
2022-12-29T00:11:15.020Z,9.61
2022-12-29T00:11:45.991Z,9.61
2022-12-29T00:12:18.875Z,9.61
2022-12-29T00:12:50.007Z,9.61
2022-12-29T00:13:22.723Z,9.61
2022-12-29T00:13:53.885Z,9.61
2022-12-29T00:14:26.726Z,9.61
2022-12-29T00:14:57.905Z,9.61
2022-12-29T00:15:30.789Z,9.72
2022-12-29T00:16:01.823Z,9.72
2022-12-29T00:16:34.700Z,9.72
2022-12-29T00:17:05.838Z,9.72
2022-12-29T00:17:38.571Z,9.61
2022-12-29T00:18:09.817Z,9.61
2022-12-29T00:18:42.763Z,9.61
2022-12-29T00:19:13.681Z,9.61
2022-12-29T00:19:46.459Z,9.61
2022-12-29T00:20:17.560Z,9.61
2022-12-29T00:20:50.511Z,9.61
2022-12-29T00:21:21.666Z,9.61
2022-12-29T00:21:54.341Z,9.61
2022-12-29T00:22:25.544Z,9.50
2022-12-29T00:22:58.449Z,9.50
2022-12-29T00:23:29.579Z,9.50
2022-12-29T00:24:02.485Z,9.50
2022-12-29T00:24:33.463Z,9.50
2022-12-29T00:25:06.405Z,9.50
2022-12-29T00:25:37.517Z,9.50
2022-12-29T00:26:10.247Z,9.50
2022-12-29T00:26:41.385Z,9.50
2022-12-29T00:27:14.295Z,9.50
2022-12-29T00:27:45.362Z,9.50
2022-12-29T00:28:18.165Z,9.50
2022-12-29T00:28:49.293Z,9.50
2022-12-29T00:29:22.113Z,9.50
2022-12-29T00:29:53.358Z,9.61
2022-12-29T00:30:26.221Z,9.61
2022-12-29T00:30:57.145Z,9.61
2022-12-29T00:31:30.313Z,9.61
2022-12-29T00:32:01.044Z,9.61
2022-12-29T00:32:33.892Z,9.61
2022-12-29T00:33:05.130Z,9.61
2022-12-29T00:33:38.030Z,9.61
2022-12-29T00:34:08.967Z,9.61
2022-12-29T00:34:42.121Z,9.61
2022-12-29T00:35:13.074Z,9.61
2022-12-29T00:35:46.113Z,9.61
2022-12-29T00:36:16.918Z,9.61
2022-12-29T00:36:49.859Z,9.61
2022-12-29T00:37:20.977Z,9.61
2022-12-29T00:37:53.900Z,9.61
2022-12-29T00:38:24.814Z,9.61
2022-12-29T00:38:57.727Z,9.50
2022-12-29T00:39:28.850Z,9.50
2022-12-29T00:40:01.928Z,9.50
2022-12-29T00:40:32.686Z,9.50
2022-12-29T00:41:05.669Z,9.50
2022-12-29T00:41:36.747Z,9.50
2022-12-29T00:42:09.525Z,9.50
2022-12-29T00:42:40.689Z,9.61
2022-12-29T00:43:13.568Z,9.61
2022-12-29T00:43:44.700Z,9.61
2022-12-29T00:44:17.302Z,9.61
2022-12-29T00:44:48.563Z,9.61
2022-12-29T00:45:21.674Z,9.61
2022-12-29T00:45:52.620Z,9.61
2022-12-29T00:46:25.405Z,9.61
2022-12-29T00:46:56.588Z,9.72
2022-12-29T00:47:29.404Z,9.72
2022-12-29T00:48:00.540Z,9.72
2022-12-29T00:48:33.250Z,9.72
2022-12-29T00:49:04.391Z,9.72
2022-12-29T00:49:37.511Z,9.61
2022-12-29T00:50:08.456Z,9.61
2022-12-29T00:50:41.296Z,9.72
2022-12-29T00:51:12.303Z,9.72
2022-12-29T00:51:45.228Z,9.72
2022-12-29T00:52:16.327Z,9.72
2022-12-29T00:52:49.052Z,9.72
2022-12-29T00:53:20.157Z,9.72
2022-12-29T00:53:53.147Z,9.72
2022-12-29T00:54:24.261Z,9.72
2022-12-29T00:54:57.063Z,9.72
2022-12-29T00:55:28.122Z,9.72
2022-12-29T00:56:00.924Z,9.72
2022-12-29T00:56:32.202Z,9.72
2022-12-29T00:57:04.931Z,9.72
2022-12-29T00:57:36.018Z,9.72
2022-12-29T00:58:09.119Z,9.72
2022-12-29T00:58:40.088Z,9.72
2022-12-29T00:59:12.811Z,9.72
2022-12-29T00:59:43.975Z,9.72
2022-12-29T01:00:17.478Z,9.72
2022-12-29T01:00:48.047Z,9.72
2022-12-29T01:01:20.881Z,9.72
2022-12-29T01:01:51.952Z,9.72
2022-12-29T01:02:24.979Z,9.72
2022-12-29T01:02:56.032Z,9.72
2022-12-29T01:03:28.640Z,9.72
2022-12-29T01:04:03.747Z,9.72
2022-12-29T01:04:32.788Z,9.72
2022-12-29T01:05:03.839Z,9.72
2022-12-29T01:05:36.639Z,9.77
2022-12-29T01:06:07.730Z,9.77
2022-12-29T01:06:40.689Z,9.77
2022-12-29T01:07:11.765Z,9.77
2022-12-29T01:07:44.447Z,9.77
2022-12-29T01:08:15.591Z,9.77
2022-12-29T01:08:48.508Z,9.77
2022-12-29T01:09:19.627Z,9.77
2022-12-29T01:09:52.396Z,9.77
2022-12-29T01:10:23.544Z,9.77
2022-12-29T01:10:56.450Z,9.77
2022-12-29T01:11:27.469Z,9.77
2022-12-29T01:12:00.342Z,9.88
2022-12-29T01:12:33.484Z,9.88
2022-12-29T01:13:04.377Z,9.88
2022-12-29T01:13:35.277Z,9.88
2022-12-29T01:14:08.207Z,9.88
2022-12-29T01:14:39.369Z,9.88
2022-12-29T01:15:12.485Z,9.88
2022-12-29T01:15:43.229Z,9.88
2022-12-29T01:16:16.317Z,9.77
2022-12-29T01:16:47.291Z,9.77
2022-12-29T01:17:20.044Z,9.77
2022-12-29T01:17:51.115Z,9.88
2022-12-29T01:18:24.131Z,9.88
2022-12-29T01:18:55.332Z,9.88
2022-12-29T01:19:28.104Z,9.88
2022-12-29T01:19:59.087Z,9.88
2022-12-29T01:20:31.853Z,9.88
2022-12-29T01:21:03.210Z,9.88
2022-12-29T01:21:36.031Z,9.88
2022-12-29T01:22:07.016Z,9.88
2022-12-29T01:22:39.875Z,9.88
2022-12-29T01:23:11.025Z,9.88
2022-12-29T01:23:44.027Z,9.88
2022-12-29T01:24:14.895Z,9.77
2022-12-29T01:24:47.699Z,9.77
2022-12-29T01:25:18.927Z,9.77
2022-12-29T01:25:51.709Z,9.77
2022-12-29T01:26:22.842Z,9.77
2022-12-29T01:26:55.829Z,9.77
2022-12-29T01:27:26.876Z,9.77
2022-12-29T01:27:59.724Z,9.77
2022-12-29T01:28:30.651Z,9.77
2022-12-29T01:29:03.821Z,9.77
2022-12-29T01:29:35.379Z,9.77
2022-12-29T01:30:08.105Z,9.77
2022-12-29T01:30:38.902Z,9.77
2022-12-29T01:31:11.657Z,9.77
2022-12-29T01:31:42.709Z,9.77
2022-12-29T01:32:16.615Z,9.77
2022-12-29T01:32:46.668Z,9.77
2022-12-29T01:33:19.415Z,9.77
2022-12-29T01:33:50.562Z,9.77
2022-12-29T01:34:23.509Z,9.77
2022-12-29T01:34:54.396Z,9.77
2022-12-29T01:35:27.340Z,9.77
2022-12-29T01:35:58.562Z,9.77
2022-12-29T01:36:31.551Z,9.77
2022-12-29T01:37:02.392Z,9.77
2022-12-29T01:37:35.652Z,9.77
2022-12-29T01:38:06.394Z,9.77
2022-12-29T01:38:39.382Z,9.77
2022-12-29T01:39:10.250Z,9.77
2022-12-29T01:39:43.155Z,9.77
2022-12-29T01:40:14.442Z,9.77
2022-12-29T01:40:47.276Z,9.77
2022-12-29T01:41:18.237Z,9.88
2022-12-29T01:41:50.978Z,9.88
2022-12-29T01:42:22.235Z,9.88
2022-12-29T01:42:54.934Z,10.00
2022-12-29T01:43:26.204Z,10.00
2022-12-29T01:43:59.046Z,10.00
2022-12-29T01:44:30.100Z,10.00
2022-12-29T01:45:03.054Z,10.00
2022-12-29T01:45:34.028Z,10.00
2022-12-29T01:46:07.002Z,10.00
2022-12-29T01:46:38.076Z,10.00
2022-12-29T01:47:10.830Z,10.00
2022-12-29T01:47:41.929Z,10.00
2022-12-29T01:48:14.831Z,10.00
2022-12-29T01:48:45.928Z,10.00
2022-12-29T01:49:18.666Z,10.00
2022-12-29T01:49:49.844Z,10.00
2022-12-29T01:50:22.625Z,10.00
2022-12-29T01:50:53.877Z,10.00
2022-12-29T01:51:26.616Z,10.00
2022-12-29T01:51:57.777Z,10.00
2022-12-29T01:52:30.659Z,10.00
2022-12-29T01:53:01.922Z,10.00
2022-12-29T01:53:34.684Z,10.00
2022-12-29T01:54:05.696Z,10.00
2022-12-29T01:54:38.758Z,10.00
2022-12-29T01:55:10.340Z,10.00
2022-12-29T01:55:43.303Z,10.00
2022-12-29T01:56:13.575Z,10.00
2022-12-29T01:56:46.411Z,10.00
2022-12-29T01:57:17.603Z,10.00
2022-12-29T01:57:50.414Z,10.00
2022-12-29T01:58:21.460Z,10.00
2022-12-29T01:58:54.529Z,10.00
2022-12-29T01:59:25.538Z,10.00
2022-12-29T01:59:58.174Z,10.00
2022-12-29T02:00:29.604Z,10.00
2022-12-29T02:01:02.365Z,10.00
2022-12-29T02:01:33.660Z,10.00
2022-12-29T02:02:06.246Z,10.00
2022-12-29T02:02:37.566Z,10.00
2022-12-29T02:03:10.404Z,10.00
2022-12-29T02:03:41.468Z,10.00
2022-12-29T02:04:14.115Z,10.00
2022-12-29T02:04:45.927Z,10.11
2022-12-29T02:05:18.147Z,10.11
2022-12-29T02:05:49.307Z,10.11
2022-12-29T02:06:22.092Z,10.11
2022-12-29T02:06:53.178Z,10.11
2022-12-29T02:07:26.088Z,10.11
2022-12-29T02:07:57.214Z,10.11
2022-12-29T02:08:29.898Z,10.11
2022-12-29T02:09:01.093Z,10.11
2022-12-29T02:09:33.915Z,10.11
2022-12-29T02:10:05.144Z,10.11
2022-12-29T02:10:37.901Z,10.11
2022-12-29T02:11:08.977Z,10.11
2022-12-29T02:11:41.943Z,10.22
2022-12-29T02:12:12.865Z,10.22
2022-12-29T02:12:45.762Z,10.22
2022-12-29T02:13:16.916Z,10.22
2022-12-29T02:13:49.794Z,10.22
2022-12-29T02:14:20.729Z,10.22
2022-12-29T02:14:53.696Z,10.22
2022-12-29T02:15:25.016Z,10.27
2022-12-29T02:15:57.800Z,10.27
2022-12-29T02:16:28.717Z,10.27
2022-12-29T02:17:01.645Z,10.27
2022-12-29T02:17:32.763Z,10.27
2022-12-29T02:18:05.802Z,10.27
2022-12-29T02:18:36.590Z,10.27
2022-12-29T02:19:09.428Z,10.27
2022-12-29T02:19:40.636Z,10.27
2022-12-29T02:20:13.645Z,10.27
2022-12-29T02:20:44.497Z,10.27
2022-12-29T02:21:17.542Z,10.27
2022-12-29T02:21:48.633Z,10.27
2022-12-29T02:22:21.452Z,10.38
2022-12-29T02:22:52.448Z,10.38
2022-12-29T02:23:25.414Z,10.38
2022-12-29T02:23:56.469Z,10.38
2022-12-29T02:24:29.411Z,10.38
2022-12-29T02:25:00.479Z,10.38
2022-12-29T02:25:33.327Z,10.38
2022-12-29T02:26:04.557Z,10.38
2022-12-29T02:26:37.160Z,10.38
2022-12-29T02:27:08.226Z,10.27
2022-12-29T02:27:41.187Z,10.27
2022-12-29T02:28:12.343Z,10.27
2022-12-29T02:28:45.247Z,10.27
2022-12-29T02:29:16.137Z,10.27
2022-12-29T02:29:49.244Z,10.38
2022-12-29T02:30:20.386Z,10.38
2022-12-29T02:30:53.285Z,10.38
2022-12-29T02:31:24.149Z,10.38
2022-12-29T02:31:57.111Z,10.38
2022-12-29T02:32:28.164Z,10.38
2022-12-29T02:33:00.862Z,10.38
2022-12-29T02:33:32.253Z,10.38
2022-12-29T02:34:05.064Z,10.38
2022-12-29T02:34:36.111Z,10.38
2022-12-29T02:35:08.731Z,10.38
2022-12-29T02:35:39.893Z,10.38
2022-12-29T02:36:12.917Z,10.38
2022-12-29T02:36:44.023Z,10.50
2022-12-29T02:37:16.739Z,10.50
2022-12-29T02:37:48.804Z,10.50
2022-12-29T02:38:20.780Z,10.50
2022-12-29T02:38:51.906Z,10.38
2022-12-29T02:39:24.600Z,10.38
2022-12-29T02:39:55.794Z,10.38
2022-12-29T02:40:28.797Z,10.38
2022-12-29T02:40:59.801Z,10.38
2022-12-29T02:41:32.525Z,10.38
2022-12-29T02:42:03.763Z,10.38
2022-12-29T02:42:36.613Z,10.38
2022-12-29T02:43:07.851Z,10.38
2022-12-29T02:43:40.511Z,10.38
2022-12-29T02:44:11.643Z,10.38
2022-12-29T02:44:44.572Z,10.38
2022-12-29T02:45:15.628Z,10.38
2022-12-29T02:45:48.394Z,10.50
2022-12-29T02:46:19.557Z,10.50
2022-12-29T02:46:52.485Z,10.50
2022-12-29T02:47:23.388Z,10.50
2022-12-29T02:47:56.320Z,10.50
2022-12-29T02:48:27.460Z,10.50
2022-12-29T02:49:00.384Z,10.50
2022-12-29T02:49:31.311Z,10.50
2022-12-29T02:50:04.308Z,10.50
2022-12-29T02:50:35.796Z,10.50
2022-12-29T02:51:08.237Z,10.50
2022-12-29T02:51:39.239Z,10.50
2022-12-29T02:52:12.040Z,10.50
2022-12-29T02:52:43.285Z,10.50
2022-12-29T02:53:16.122Z,10.61
2022-12-29T02:53:47.120Z,10.61
2022-12-29T02:54:20.054Z,10.61
2022-12-29T02:54:51.185Z,10.61
2022-12-29T02:55:24.068Z,10.61
2022-12-29T02:55:55.041Z,10.61
2022-12-29T02:56:27.944Z,10.61
2022-12-29T02:56:59.126Z,10.61
2022-12-29T02:57:31.689Z,10.61
2022-12-29T02:58:02.970Z,10.61
2022-12-29T02:58:35.896Z,10.61
2022-12-29T02:59:07.010Z,10.61
2022-12-29T02:59:39.616Z,10.61
2022-12-29T03:00:11.257Z,10.61
2022-12-29T03:00:43.902Z,10.61
2022-12-29T03:01:14.917Z,10.61
2022-12-29T03:01:47.768Z,10.61
2022-12-29T03:02:19.033Z,10.61
2022-12-29T03:02:51.669Z,10.61
2022-12-29T03:03:22.889Z,10.61
2022-12-29T03:03:55.584Z,10.61
2022-12-29T03:04:26.707Z,10.61
2022-12-29T03:04:59.614Z,10.61
2022-12-29T03:05:30.740Z,10.61
2022-12-29T03:06:03.516Z,10.61
2022-12-29T03:06:34.646Z,10.61
2022-12-29T03:07:07.560Z,10.61
2022-12-29T03:07:38.724Z,10.72
2022-12-29T03:08:11.454Z,10.72
2022-12-29T03:08:42.508Z,10.72
2022-12-29T03:09:19.112Z,10.72
2022-12-29T03:09:46.581Z,10.72
2022-12-29T03:10:19.325Z,10.61
2022-12-29T03:10:50.492Z,10.61
2022-12-29T03:11:23.405Z,10.61
2022-12-29T03:11:54.515Z,10.61
2022-12-29T03:12:27.241Z,10.61
2022-12-29T03:12:58.427Z,10.61
2022-12-29T03:13:32.075Z,10.61
2022-12-29T03:14:02.484Z,10.61
2022-12-29T03:14:35.753Z,10.61
2022-12-29T03:15:06.578Z,10.61
2022-12-29T03:15:40.216Z,10.61
2022-12-29T03:16:10.316Z,10.61
2022-12-29T03:16:43.169Z,10.61
2022-12-29T03:17:14.431Z,10.61
2022-12-29T03:17:47.132Z,10.50
2022-12-29T03:18:18.263Z,10.50
2022-12-29T03:18:50.983Z,10.50
2022-12-29T03:19:22.046Z,10.50
2022-12-29T03:19:54.988Z,10.50
2022-12-29T03:20:26.169Z,10.50
2022-12-29T03:20:58.761Z,10.50
2022-12-29T03:21:30.068Z,10.50
2022-12-29T03:22:02.973Z,10.50
2022-12-29T03:22:33.853Z,10.50
2022-12-29T03:23:06.817Z,10.50
2022-12-29T03:23:37.972Z,10.50
2022-12-29T03:24:10.807Z,10.50
2022-12-29T03:24:42.004Z,10.50
2022-12-29T03:25:14.754Z,10.50
2022-12-29T03:25:45.844Z,10.50
2022-12-29T03:26:18.652Z,10.50
2022-12-29T03:26:49.681Z,10.50
2022-12-29T03:27:22.505Z,10.50
2022-12-29T03:27:53.734Z,10.50
2022-12-29T03:28:26.627Z,10.50
2022-12-29T03:28:57.579Z,10.50
2022-12-29T03:29:30.534Z,10.50
2022-12-29T03:30:01.980Z,10.61
2022-12-29T03:30:34.859Z,10.61
2022-12-29T03:31:05.568Z,10.61
2022-12-29T03:31:38.454Z,10.61
2022-12-29T03:32:10.201Z,10.61
2022-12-29T03:32:42.527Z,10.61
2022-12-29T03:33:13.444Z,10.61
2022-12-29T03:33:46.765Z,10.50
2022-12-29T03:34:17.525Z,10.50
2022-12-29T03:34:50.427Z,10.50
2022-12-29T03:35:21.381Z,10.50
2022-12-29T03:35:54.248Z,10.61
2022-12-29T03:36:25.375Z,10.61
2022-12-29T03:36:58.530Z,10.61
2022-12-29T03:37:29.255Z,10.61
2022-12-29T03:38:02.239Z,10.61
2022-12-29T03:38:33.315Z,10.61
2022-12-29T03:39:06.266Z,10.61
2022-12-29T03:39:37.145Z,10.61
2022-12-29T03:40:10.124Z,10.61
2022-12-29T03:40:41.272Z,10.61
2022-12-29T03:41:14.185Z,10.61
2022-12-29T03:41:45.103Z,10.50
2022-12-29T03:42:18.037Z,10.50
2022-12-29T03:42:49.146Z,10.50
2022-12-29T03:43:22.131Z,10.50
2022-12-29T03:43:52.962Z,10.50
2022-12-29T03:44:25.960Z,10.50
2022-12-29T03:44:57.081Z,10.50
2022-12-29T03:45:30.026Z,10.50
2022-12-29T03:46:01.048Z,10.50
2022-12-29T03:46:33.968Z,10.50
2022-12-29T03:47:04.943Z,10.50
2022-12-29T03:47:37.962Z,10.50
2022-12-29T03:48:08.876Z,10.50
2022-12-29T03:48:41.724Z,10.50
2022-12-29T03:49:12.881Z,10.50
2022-12-29T03:49:45.781Z,10.50
2022-12-29T03:50:16.722Z,10.61
2022-12-29T03:50:49.666Z,10.61
2022-12-29T03:51:20.801Z,10.61
2022-12-29T03:51:53.783Z,10.61
2022-12-29T03:52:24.671Z,10.61
2022-12-29T03:52:57.549Z,10.61
2022-12-29T03:53:28.731Z,10.61
2022-12-29T03:54:01.676Z,10.61
2022-12-29T03:54:32.613Z,10.61
2022-12-29T03:55:05.518Z,10.50
2022-12-29T03:55:36.612Z,10.50
2022-12-29T03:56:09.533Z,10.50
2022-12-29T03:56:40.487Z,10.50
2022-12-29T03:57:13.290Z,10.50
2022-12-29T03:57:44.523Z,10.50
2022-12-29T03:58:17.564Z,10.50
2022-12-29T03:58:48.438Z,10.61
2022-12-29T03:59:21.226Z,10.61
2022-12-29T03:59:52.463Z,10.61
2022-12-29T04:00:25.569Z,10.61
2022-12-29T04:00:56.336Z,10.61
2022-12-29T04:01:29.352Z,10.61
2022-12-29T04:02:00.570Z,10.61
2022-12-29T04:02:33.219Z,10.61
2022-12-29T04:03:04.340Z,10.61
2022-12-29T04:03:37.383Z,10.61
2022-12-29T04:04:08.295Z,10.61
2022-12-29T04:04:41.028Z,10.61
2022-12-29T04:05:12.123Z,10.61
2022-12-29T04:05:45.116Z,10.72
2022-12-29T04:06:16.201Z,10.72
2022-12-29T04:06:48.957Z,10.72
2022-12-29T04:07:20.026Z,10.72
2022-12-29T04:07:53.011Z,10.72
2022-12-29T04:08:24.142Z,10.72
2022-12-29T04:08:56.956Z,10.72
2022-12-29T04:09:27.936Z,10.72
2022-12-29T04:10:01.159Z,10.72
2022-12-29T04:10:32.061Z,10.72
2022-12-29T04:11:04.766Z,10.72
2022-12-29T04:11:35.922Z,10.72
2022-12-29T04:12:08.827Z,10.72
2022-12-29T04:12:39.972Z,10.72
2022-12-29T04:13:12.786Z,10.72
2022-12-29T04:13:43.826Z,10.72
2022-12-29T04:14:16.738Z,10.72
2022-12-29T04:14:47.827Z,10.61
2022-12-29T04:15:20.781Z,10.61
2022-12-29T04:15:51.730Z,10.61
2022-12-29T04:16:24.703Z,10.61
2022-12-29T04:16:56.820Z,10.61
2022-12-29T04:17:28.417Z,10.61
2022-12-29T04:17:59.714Z,10.61
2022-12-29T04:18:32.709Z,10.61
2022-12-29T04:19:03.761Z,10.61
2022-12-29T04:19:36.414Z,10.72
2022-12-29T04:20:07.579Z,10.72
2022-12-29T04:20:40.476Z,10.72
2022-12-29T04:21:11.440Z,10.72
2022-12-29T04:21:44.345Z,10.72
2022-12-29T04:22:15.465Z,10.72
2022-12-29T04:22:48.360Z,10.61
2022-12-29T04:23:19.498Z,10.61
2022-12-29T04:23:52.275Z,10.61
2022-12-29T04:24:23.497Z,10.61
2022-12-29T04:24:56.179Z,10.61
2022-12-29T04:25:27.458Z,10.61
2022-12-29T04:26:00.209Z,10.61
2022-12-29T04:26:31.356Z,10.61
2022-12-29T04:27:04.184Z,10.61
2022-12-29T04:27:35.158Z,10.61
2022-12-29T04:28:08.066Z,10.61
2022-12-29T04:28:39.190Z,10.61
2022-12-29T04:29:12.026Z,10.61
2022-12-29T04:29:43.261Z,10.61
2022-12-29T04:30:16.222Z,10.61
2022-12-29T04:30:47.194Z,10.61
2022-12-29T04:31:20.214Z,10.61
2022-12-29T04:31:51.169Z,10.61
2022-12-29T04:32:23.822Z,10.61
2022-12-29T04:32:55.360Z,10.61
2022-12-29T04:33:27.960Z,10.61
2022-12-29T04:33:58.908Z,10.50
2022-12-29T04:34:31.873Z,10.50
2022-12-29T04:35:02.964Z,10.50
2022-12-29T04:35:36.335Z,10.50
2022-12-29T04:36:06.802Z,10.50
2022-12-29T04:36:39.704Z,10.50
2022-12-29T04:37:10.858Z,10.50
2022-12-29T04:37:43.821Z,10.50
2022-12-29T04:38:14.714Z,10.50
2022-12-29T04:38:47.758Z,10.50
2022-12-29T04:39:18.823Z,10.50
2022-12-29T04:39:51.757Z,10.50
2022-12-29T04:40:22.621Z,10.50
2022-12-29T04:40:55.525Z,10.50
2022-12-29T04:41:26.711Z,10.50
2022-12-29T04:41:59.558Z,10.50
2022-12-29T04:42:30.605Z,10.50
2022-12-29T04:43:03.542Z,10.50
2022-12-29T04:43:34.636Z,10.50
2022-12-29T04:44:07.496Z,10.50
2022-12-29T04:44:44.729Z,10.38
2022-12-29T04:45:11.550Z,10.38
2022-12-29T04:45:42.515Z,10.38
2022-12-29T04:46:15.510Z,10.38
2022-12-29T04:46:46.475Z,10.38
2022-12-29T04:47:19.261Z,10.38
2022-12-29T04:47:50.456Z,10.50
2022-12-29T04:48:23.489Z,10.50
2022-12-29T04:48:54.286Z,10.50
2022-12-29T04:49:27.161Z,10.50
2022-12-29T04:49:58.339Z,10.50
2022-12-29T04:50:31.266Z,10.50
2022-12-29T04:51:02.199Z,10.50
2022-12-29T04:51:35.333Z,10.50
2022-12-29T04:52:06.274Z,10.50
2022-12-29T04:52:39.192Z,10.50
2022-12-29T04:53:10.132Z,10.50
2022-12-29T04:53:43.037Z,10.50
2022-12-29T04:54:14.187Z,10.38
2022-12-29T04:54:47.175Z,10.38
2022-12-29T04:55:17.974Z,10.38
2022-12-29T04:55:50.979Z,10.38
2022-12-29T04:56:22.108Z,10.38
2022-12-29T04:56:55.013Z,10.38
2022-12-29T04:57:25.926Z,10.38
2022-12-29T04:57:58.814Z,10.38
2022-12-29T04:58:30.031Z,10.50
2022-12-29T04:59:02.963Z,10.50
2022-12-29T04:59:33.898Z,10.50
2022-12-29T05:00:07.126Z,10.50
2022-12-29T05:00:37.927Z,10.50
2022-12-29T05:01:10.633Z,10.50
2022-12-29T05:01:41.912Z,10.50
2022-12-29T05:02:14.811Z,10.50
2022-12-29T05:02:45.991Z,10.50
2022-12-29T05:03:18.695Z,10.50
2022-12-29T05:03:49.818Z,10.50
2022-12-29T05:04:22.579Z,10.50
2022-12-29T05:04:53.796Z,10.50
2022-12-29T05:05:26.648Z,10.50
2022-12-29T05:05:57.618Z,10.50
2022-12-29T05:06:30.535Z,10.50
2022-12-29T05:07:01.709Z,10.50
2022-12-29T05:07:34.520Z,10.50
2022-12-29T05:08:05.580Z,10.50
2022-12-29T05:08:38.561Z,10.50
2022-12-29T05:09:09.542Z,10.50
2022-12-29T05:09:42.295Z,10.50
2022-12-29T05:10:13.468Z,10.50
2022-12-29T05:10:46.346Z,10.50
2022-12-29T05:11:17.512Z,10.50
2022-12-29T05:11:50.177Z,10.50
2022-12-29T05:12:21.392Z,10.50
2022-12-29T05:12:54.258Z,10.50
2022-12-29T05:13:25.384Z,10.38
2022-12-29T05:13:58.192Z,10.38
2022-12-29T05:14:29.385Z,10.38
2022-12-29T05:15:02.412Z,10.38
2022-12-29T05:15:33.266Z,10.38
2022-12-29T05:16:06.095Z,10.38
2022-12-29T05:16:37.319Z,10.38
2022-12-29T05:17:10.123Z,10.38
2022-12-29T05:17:41.261Z,10.38
2022-12-29T05:18:13.991Z,10.38
2022-12-29T05:18:45.129Z,10.38
2022-12-29T05:19:18.056Z,10.38
2022-12-29T05:19:49.116Z,10.38
2022-12-29T05:20:21.903Z,10.38
2022-12-29T05:20:53.022Z,10.38
2022-12-29T05:21:25.962Z,10.38
2022-12-29T05:21:56.927Z,10.38
2022-12-29T05:22:29.787Z,10.38
2022-12-29T05:23:01.226Z,10.50
2022-12-29T05:23:33.907Z,10.50
2022-12-29T05:24:04.759Z,10.50
2022-12-29T05:24:37.695Z,10.50
2022-12-29T05:25:08.810Z,10.50
2022-12-29T05:25:41.694Z,10.50
2022-12-29T05:26:12.738Z,10.50
2022-12-29T05:26:45.590Z,10.50
2022-12-29T05:27:16.759Z,10.50
2022-12-29T05:27:49.635Z,10.50
2022-12-29T05:28:20.654Z,10.50
2022-12-29T05:28:53.555Z,10.38
2022-12-29T05:29:24.668Z,10.38
2022-12-29T05:29:57.617Z,10.38
2022-12-29T05:30:28.689Z,10.38
2022-12-29T05:31:01.608Z,10.50
2022-12-29T05:31:32.592Z,10.50
2022-12-29T05:32:05.508Z,10.50
2022-12-29T05:32:36.559Z,10.50
2022-12-29T05:33:09.359Z,10.50
2022-12-29T05:33:40.508Z,10.50
2022-12-29T05:34:13.434Z,10.50
2022-12-29T05:34:44.350Z,10.50
2022-12-29T05:35:17.235Z,10.50
2022-12-29T05:35:48.386Z,10.50
2022-12-29T05:36:21.334Z,10.50
2022-12-29T05:36:52.288Z,10.50
2022-12-29T05:37:25.176Z,10.50
2022-12-29T05:37:56.359Z,10.50
2022-12-29T05:38:29.292Z,10.50
2022-12-29T05:39:00.197Z,10.50
2022-12-29T05:39:33.088Z,10.50
2022-12-29T05:40:04.258Z,10.50
2022-12-29T05:40:37.033Z,10.38
2022-12-29T05:41:08.077Z,10.38
2022-12-29T05:41:41.074Z,10.38
2022-12-29T05:42:12.192Z,10.38
2022-12-29T05:42:45.295Z,10.38
2022-12-29T05:43:15.969Z,10.38
2022-12-29T05:43:48.935Z,10.38
2022-12-29T05:44:20.074Z,10.50
2022-12-29T05:44:53.042Z,10.50
2022-12-29T05:45:24.167Z,10.50
2022-12-29T05:45:56.752Z,10.50
2022-12-29T05:46:28.083Z,10.50
2022-12-29T05:47:00.921Z,10.38
2022-12-29T05:47:31.877Z,10.38
2022-12-29T05:48:04.765Z,10.38
2022-12-29T05:48:38.103Z,10.38
2022-12-29T05:49:08.808Z,10.50
2022-12-29T05:49:39.800Z,10.50
2022-12-29T05:50:12.793Z,10.50
2022-12-29T05:50:43.799Z,10.50
2022-12-29T05:51:16.521Z,10.50
2022-12-29T05:51:47.726Z,10.50
2022-12-29T05:52:20.585Z,10.50
2022-12-29T05:52:51.763Z,10.50
2022-12-29T05:53:25.337Z,10.50
2022-12-29T05:53:55.582Z,10.50
2022-12-29T05:54:28.552Z,10.50
2022-12-29T05:54:59.672Z,10.50
2022-12-29T05:55:32.279Z,10.50
2022-12-29T05:56:03.507Z,10.50
2022-12-29T05:56:36.574Z,10.50
2022-12-29T05:57:07.579Z,10.61
2022-12-29T05:57:40.292Z,10.61
2022-12-29T05:58:11.456Z,10.72
2022-12-29T05:58:45.058Z,10.72
2022-12-29T05:59:15.458Z,10.72
2022-12-29T05:59:48.204Z,10.72
2022-12-29T06:00:19.549Z,10.72
2022-12-29T06:00:52.288Z,10.72
2022-12-29T06:01:23.490Z,10.61
2022-12-29T06:01:56.340Z,10.61
2022-12-29T06:02:27.447Z,10.61
2022-12-29T06:03:00.250Z,10.61
2022-12-29T06:03:31.446Z,10.61
2022-12-29T06:04:04.213Z,10.50
2022-12-29T06:04:35.361Z,10.61
2022-12-29T06:05:08.150Z,10.61
2022-12-29T06:05:39.185Z,10.61
2022-12-29T06:06:12.078Z,10.61
2022-12-29T06:06:43.044Z,10.61
2022-12-29T06:07:15.978Z,10.61
2022-12-29T06:07:47.109Z,10.61
2022-12-29T06:08:21.035Z,10.61
2022-12-29T06:08:51.007Z,10.61
2022-12-29T06:09:23.964Z,10.61
2022-12-29T06:09:55.071Z,10.61
2022-12-29T06:10:27.817Z,10.61
2022-12-29T06:10:58.888Z,10.61
2022-12-29T06:11:31.845Z,10.61
2022-12-29T06:12:02.785Z,10.61
2022-12-29T06:12:36.056Z,10.61
2022-12-29T06:13:06.814Z,10.50
2022-12-29T06:13:39.886Z,10.50
2022-12-29T06:14:10.665Z,10.50
2022-12-29T06:14:43.697Z,10.50
2022-12-29T06:15:14.931Z,10.50
2022-12-29T06:15:47.655Z,10.50
2022-12-29T06:16:18.734Z,10.50
2022-12-29T06:16:51.560Z,10.50
2022-12-29T06:17:22.621Z,10.50
2022-12-29T06:17:55.582Z,10.50
2022-12-29T06:18:26.549Z,10.50
2022-12-29T06:18:59.420Z,10.61
2022-12-29T06:19:30.548Z,10.61
2022-12-29T06:20:03.518Z,10.61
2022-12-29T06:20:34.513Z,10.61
2022-12-29T06:21:07.381Z,10.61
2022-12-29T06:21:38.479Z,10.61
2022-12-29T06:22:11.506Z,10.61
2022-12-29T06:22:42.355Z,10.61
2022-12-29T06:23:15.334Z,10.61
2022-12-29T06:23:46.633Z,10.61
2022-12-29T06:24:19.346Z,10.61
2022-12-29T06:24:50.224Z,10.61
2022-12-29T06:25:23.220Z,10.61
2022-12-29T06:25:54.289Z,10.61
2022-12-29T06:26:27.227Z,10.61
2022-12-29T06:26:58.149Z,10.61
2022-12-29T06:27:31.105Z,10.61
2022-12-29T06:28:02.231Z,10.72
2022-12-29T06:28:35.207Z,10.72
2022-12-29T06:29:06.107Z,10.72
2022-12-29T06:29:38.922Z,10.72
2022-12-29T06:30:10.589Z,10.72
2022-12-29T06:30:43.019Z,10.72
2022-12-29T06:31:14.042Z,10.72
2022-12-29T06:31:47.098Z,10.61
2022-12-29T06:32:18.026Z,10.61
2022-12-29T06:32:50.851Z,10.61
2022-12-29T06:33:21.989Z,10.61
2022-12-29T06:33:54.853Z,10.61
2022-12-29T06:34:25.962Z,10.61
2022-12-29T06:34:58.850Z,10.61
2022-12-29T06:35:29.818Z,10.61
2022-12-29T06:36:02.748Z,10.61
2022-12-29T06:36:33.886Z,10.50
2022-12-29T06:37:06.825Z,10.50
2022-12-29T06:37:37.728Z,10.50
2022-12-29T06:38:10.977Z,10.50
2022-12-29T06:38:41.795Z,10.50
2022-12-29T06:39:14.739Z,10.50
2022-12-29T06:39:45.649Z,10.50
2022-12-29T06:40:18.583Z,10.50
2022-12-29T06:40:49.716Z,10.50
2022-12-29T06:41:29.967Z,10.50
2022-12-29T06:41:53.679Z,10.61
2022-12-29T06:42:26.598Z,10.61
2022-12-29T06:42:58.193Z,10.61
2022-12-29T06:43:30.383Z,10.61
2022-12-29T06:44:01.506Z,10.61
2022-12-29T06:44:34.386Z,10.50
2022-12-29T06:45:05.956Z,10.50
2022-12-29T06:45:38.504Z,10.50
2022-12-29T06:46:09.455Z,10.50
2022-12-29T06:46:42.566Z,10.50
2022-12-29T06:47:13.509Z,10.50
2022-12-29T06:47:46.181Z,10.50
2022-12-29T06:48:17.262Z,10.50
2022-12-29T06:48:50.179Z,10.50
2022-12-29T06:49:21.359Z,10.50
2022-12-29T06:49:54.242Z,10.50
2022-12-29T06:50:25.204Z,10.50
2022-12-29T06:50:58.135Z,10.50
2022-12-29T06:51:29.339Z,10.50
2022-12-29T06:52:02.758Z,10.50
2022-12-29T06:52:33.118Z,10.50
2022-12-29T06:53:06.147Z,10.50
2022-12-29T06:53:37.190Z,10.50
2022-12-29T06:54:09.894Z,10.50
2022-12-29T06:54:41.081Z,10.50